sensor_id;sensor_type;location;lat;lon;timestamp;temperature;humidity
8979;DHT22;4524;51.364;5.448;2023-05-07T00:00:59;15.50;99.90
8979;DHT22;4524;51.364;5.448;2023-05-07T00:03:29;15.50;99.90
8979;DHT22;4524;51.364;5.448;2023-05-07T00:05:57;15.50;99.90
8979;DHT22;4524;51.364;5.448;2023-05-07T00:08:25;15.50;99.90
8979;DHT22;4524;51.364;5.448;2023-05-07T00:10:53;15.50;99.90
8979;DHT22;4524;51.364;5.448;2023-05-07T00:13:21;15.50;99.90
8979;DHT22;4524;51.364;5.448;2023-05-07T00:15:49;15.50;99.90
8979;DHT22;4524;51.364;5.448;2023-05-07T00:18:17;15.50;99.90
8979;DHT22;4524;51.364;5.448;2023-05-07T00:20:48;15.50;99.90
8979;DHT22;4524;51.364;5.448;2023-05-07T00:23:16;15.40;99.90
8979;DHT22;4524;51.364;5.448;2023-05-07T00:25:44;15.40;99.90
8979;DHT22;4524;51.364;5.448;2023-05-07T00:28:12;15.40;99.90
8979;DHT22;4524;51.364;5.448;2023-05-07T00:30:40;15.40;99.90
8979;DHT22;4524;51.364;5.448;2023-05-07T00:33:08;15.30;99.90
8979;DHT22;4524;51.364;5.448;2023-05-07T00:35:36;15.30;99.90
8979;DHT22;4524;51.364;5.448;2023-05-07T00:38:06;15.30;99.90
8979;DHT22;4524;51.364;5.448;2023-05-07T00:40:34;15.40;99.90
8979;DHT22;4524;51.364;5.448;2023-05-07T00:43:02;15.30;99.90
8979;DHT22;4524;51.364;5.448;2023-05-07T00:45:30;15.40;99.90
8979;DHT22;4524;51.364;5.448;2023-05-07T00:47:59;15.40;99.90
8979;DHT22;4524;51.364;5.448;2023-05-07T00:50:28;15.30;99.90
8979;DHT22;4524;51.364;5.448;2023-05-07T00:52:57;15.30;99.90
8979;DHT22;4524;51.364;5.448;2023-05-07T00:55:27;15.40;99.90
8979;DHT22;4524;51.364;5.448;2023-05-07T00:57:55;15.40;99.90
8979;DHT22;4524;51.364;5.448;2023-05-07T01:00:23;15.40;99.90
8979;DHT22;4524;51.364;5.448;2023-05-07T01:02:51;15.40;99.90
8979;DHT22;4524;51.364;5.448;2023-05-07T01:05:21;15.40;99.90
8979;DHT22;4524;51.364;5.448;2023-05-07T01:07:52;15.40;99.90
8979;DHT22;4524;51.364;5.448;2023-05-07T01:10:21;15.40;99.90
8979;DHT22;4524;51.364;5.448;2023-05-07T01:12:51;15.50;99.90
8979;DHT22;4524;51.364;5.448;2023-05-07T01:15:20;15.50;99.90
8979;DHT22;4524;51.364;5.448;2023-05-07T01:17:47;15.50;99.90
8979;DHT22;4524;51.364;5.448;2023-05-07T01:20:22;15.50;99.90
8979;DHT22;4524;51.364;5.448;2023-05-07T01:22:54;15.40;99.90
8979;DHT22;4524;51.364;5.448;2023-05-07T01:25:22;15.30;99.90
8979;DHT22;4524;51.364;5.448;2023-05-07T01:27:53;15.30;99.90
8979;DHT22;4524;51.364;5.448;2023-05-07T01:30:26;15.20;99.90
8979;DHT22;4524;51.364;5.448;2023-05-07T01:32:58;15.10;99.90
8979;DHT22;4524;51.364;5.448;2023-05-07T01:35:30;15.10;99.90
8979;DHT22;4524;51.364;5.448;2023-05-07T01:38:02;15.20;99.90
8979;DHT22;4524;51.364;5.448;2023-05-07T01:40:31;15.20;99.90
8979;DHT22;4524;51.364;5.448;2023-05-07T01:42:59;15.20;99.90
8979;DHT22;4524;51.364;5.448;2023-05-07T01:45:27;15.10;99.90
8979;DHT22;4524;51.364;5.448;2023-05-07T01:47:58;15.10;99.90
8979;DHT22;4524;51.364;5.448;2023-05-07T01:50:27;15.10;99.90
8979;DHT22;4524;51.364;5.448;2023-05-07T01:52:55;15.00;99.90
8979;DHT22;4524;51.364;5.448;2023-05-07T01:55:25;15.10;99.90
8979;DHT22;4524;51.364;5.448;2023-05-07T01:57:53;15.10;99.90
8979;DHT22;4524;51.364;5.448;2023-05-07T02:00:22;15.10;99.90
8979;DHT22;4524;51.364;5.448;2023-05-07T02:02:50;15.20;99.90
8979;DHT22;4524;51.364;5.448;2023-05-07T02:05:28;15.20;99.90
8979;DHT22;4524;51.364;5.448;2023-05-07T02:08:19;15.20;99.90
8979;DHT22;4524;51.364;5.448;2023-05-07T02:10:48;15.20;99.90
8979;DHT22;4524;51.364;5.448;2023-05-07T02:13:16;15.10;99.90
8979;DHT22;4524;51.364;5.448;2023-05-07T02:15:44;15.10;99.90
8979;DHT22;4524;51.364;5.448;2023-05-07T02:18:16;15.10;99.90
8979;DHT22;4524;51.364;5.448;2023-05-07T02:20:44;15.20;99.90
8979;DHT22;4524;51.364;5.448;2023-05-07T02:23:12;15.10;99.90
8979;DHT22;4524;51.364;5.448;2023-05-07T02:25:40;15.10;99.90
8979;DHT22;4524;51.364;5.448;2023-05-07T02:28:10;15.10;99.90
8979;DHT22;4524;51.364;5.448;2023-05-07T02:30:49;15.10;99.90
8979;DHT22;4524;51.364;5.448;2023-05-07T02:33:18;15.10;99.90
8979;DHT22;4524;51.364;5.448;2023-05-07T02:35:46;15.00;99.90
8979;DHT22;4524;51.364;5.448;2023-05-07T02:38:15;15.00;99.90
8979;DHT22;4524;51.364;5.448;2023-05-07T02:40:43;15.00;99.90
8979;DHT22;4524;51.364;5.448;2023-05-07T02:43:13;15.00;99.90
8979;DHT22;4524;51.364;5.448;2023-05-07T02:45:44;15.00;99.90
8979;DHT22;4524;51.364;5.448;2023-05-07T02:48:12;15.10;99.90
8979;DHT22;4524;51.364;5.448;2023-05-07T02:50:40;15.10;99.90
8979;DHT22;4524;51.364;5.448;2023-05-07T02:53:10;15.00;99.90
8979;DHT22;4524;51.364;5.448;2023-05-07T02:55:38;15.10;99.90
8979;DHT22;4524;51.364;5.448;2023-05-07T02:58:06;15.10;99.90
8979;DHT22;4524;51.364;5.448;2023-05-07T03:00:37;15.10;99.90
8979;DHT22;4524;51.364;5.448;2023-05-07T03:03:16;15.10;99.90
8979;DHT22;4524;51.364;5.448;2023-05-07T03:05:44;15.10;99.90
8979;DHT22;4524;51.364;5.448;2023-05-07T03:08:12;15.10;99.90
8979;DHT22;4524;51.364;5.448;2023-05-07T03:10:40;15.10;99.90
8979;DHT22;4524;51.364;5.448;2023-05-07T03:13:08;15.10;99.90
8979;DHT22;4524;51.364;5.448;2023-05-07T03:15:37;15.10;99.90
8979;DHT22;4524;51.364;5.448;2023-05-07T03:18:05;15.10;99.90
8979;DHT22;4524;51.364;5.448;2023-05-07T03:20:34;15.10;99.90
8979;DHT22;4524;51.364;5.448;2023-05-07T03:23:03;15.10;99.90
8979;DHT22;4524;51.364;5.448;2023-05-07T03:25:31;15.10;99.90
8979;DHT22;4524;51.364;5.448;2023-05-07T03:28:00;15.10;99.90
8979;DHT22;4524;51.364;5.448;2023-05-07T03:30:38;15.10;99.90
8979;DHT22;4524;51.364;5.448;2023-05-07T03:33:06;15.10;99.90
8979;DHT22;4524;51.364;5.448;2023-05-07T03:35:34;15.10;99.90
8979;DHT22;4524;51.364;5.448;2023-05-07T03:38:02;15.10;99.90
8979;DHT22;4524;51.364;5.448;2023-05-07T03:40:33;15.10;99.90
8979;DHT22;4524;51.364;5.448;2023-05-07T03:43:03;15.00;99.90
8979;DHT22;4524;51.364;5.448;2023-05-07T03:45:34;15.00;99.90
8979;DHT22;4524;51.364;5.448;2023-05-07T03:48:14;15.10;99.90
8979;DHT22;4524;51.364;5.448;2023-05-07T03:50:42;15.00;99.90
8979;DHT22;4524;51.364;5.448;2023-05-07T03:53:10;14.90;99.90
8979;DHT22;4524;51.364;5.448;2023-05-07T03:55:39;15.00;99.90
8979;DHT22;4524;51.364;5.448;2023-05-07T03:58:07;15.00;99.90
8979;DHT22;4524;51.364;5.448;2023-05-07T04:00:35;15.00;99.90
8979;DHT22;4524;51.364;5.448;2023-05-07T04:03:15;15.00;99.90
8979;DHT22;4524;51.364;5.448;2023-05-07T04:05:43;15.00;99.90
8979;DHT22;4524;51.364;5.448;2023-05-07T04:08:11;15.00;99.90
8979;DHT22;4524;51.364;5.448;2023-05-07T04:10:45;15.00;99.90
8979;DHT22;4524;51.364;5.448;2023-05-07T04:13:13;15.00;99.90
8979;DHT22;4524;51.364;5.448;2023-05-07T04:15:42;15.10;99.90
8979;DHT22;4524;51.364;5.448;2023-05-07T04:18:12;15.10;99.90
8979;DHT22;4524;51.364;5.448;2023-05-07T04:20:44;15.10;99.90
8979;DHT22;4524;51.364;5.448;2023-05-07T04:23:14;15.10;99.90
8979;DHT22;4524;51.364;5.448;2023-05-07T04:25:42;15.10;99.90
8979;DHT22;4524;51.364;5.448;2023-05-07T04:28:19;15.00;99.90
8979;DHT22;4524;51.364;5.448;2023-05-07T04:30:47;15.00;99.90
8979;DHT22;4524;51.364;5.448;2023-05-07T04:33:15;15.00;99.90
8979;DHT22;4524;51.364;5.448;2023-05-07T04:35:47;15.00;99.90
8979;DHT22;4524;51.364;5.448;2023-05-07T04:38:15;15.10;99.90
8979;DHT22;4524;51.364;5.448;2023-05-07T04:40:46;15.20;99.90
8979;DHT22;4524;51.364;5.448;2023-05-07T04:43:18;15.20;99.90
8979;DHT22;4524;51.364;5.448;2023-05-07T04:45:50;15.20;99.90
8979;DHT22;4524;51.364;5.448;2023-05-07T04:48:19;15.20;99.90
8979;DHT22;4524;51.364;5.448;2023-05-07T04:50:50;15.20;99.90
8979;DHT22;4524;51.364;5.448;2023-05-07T04:53:19;15.20;99.90
8979;DHT22;4524;51.364;5.448;2023-05-07T04:55:48;15.20;99.90
8979;DHT22;4524;51.364;5.448;2023-05-07T04:58:16;15.20;99.90
8979;DHT22;4524;51.364;5.448;2023-05-07T05:00:46;15.20;99.90
8979;DHT22;4524;51.364;5.448;2023-05-07T05:03:14;15.20;99.90
8979;DHT22;4524;51.364;5.448;2023-05-07T05:05:43;15.30;99.90
8979;DHT22;4524;51.364;5.448;2023-05-07T05:08:12;15.30;99.90
8979;DHT22;4524;51.364;5.448;2023-05-07T05:10:42;15.30;99.90
8979;DHT22;4524;51.364;5.448;2023-05-07T05:13:10;15.30;99.90
8979;DHT22;4524;51.364;5.448;2023-05-07T05:15:40;15.30;99.90
8979;DHT22;4524;51.364;5.448;2023-05-07T05:18:08;15.30;99.90
8979;DHT22;4524;51.364;5.448;2023-05-07T05:20:36;15.40;99.90
8979;DHT22;4524;51.364;5.448;2023-05-07T05:23:05;15.50;99.90
8979;DHT22;4524;51.364;5.448;2023-05-07T05:25:34;15.50;99.90
8979;DHT22;4524;51.364;5.448;2023-05-07T05:28:02;15.50;99.90
8979;DHT22;4524;51.364;5.448;2023-05-07T05:30:33;15.50;99.90
8979;DHT22;4524;51.364;5.448;2023-05-07T05:33:01;15.50;99.90
8979;DHT22;4524;51.364;5.448;2023-05-07T05:35:29;15.60;99.90
8979;DHT22;4524;51.364;5.448;2023-05-07T05:38:02;15.50;99.90
8979;DHT22;4524;51.364;5.448;2023-05-07T05:40:30;15.40;99.90
8979;DHT22;4524;51.364;5.448;2023-05-07T05:43:00;15.50;99.90
8979;DHT22;4524;51.364;5.448;2023-05-07T05:45:28;15.50;99.90
8979;DHT22;4524;51.364;5.448;2023-05-07T05:47:56;15.60;99.90
8979;DHT22;4524;51.364;5.448;2023-05-07T05:50:24;15.60;99.90
8979;DHT22;4524;51.364;5.448;2023-05-07T05:52:53;15.80;99.90
8979;DHT22;4524;51.364;5.448;2023-05-07T05:55:22;15.80;99.90
8979;DHT22;4524;51.364;5.448;2023-05-07T05:57:50;15.90;99.90
8979;DHT22;4524;51.364;5.448;2023-05-07T06:00:20;16.10;99.90
8979;DHT22;4524;51.364;5.448;2023-05-07T06:02:57;16.20;99.90
8979;DHT22;4524;51.364;5.448;2023-05-07T06:05:26;16.20;99.90
8979;DHT22;4524;51.364;5.448;2023-05-07T06:07:56;16.40;99.90
8979;DHT22;4524;51.364;5.448;2023-05-07T06:10:27;16.40;99.90
8979;DHT22;4524;51.364;5.448;2023-05-07T06:12:56;16.40;99.90
8979;DHT22;4524;51.364;5.448;2023-05-07T06:15:26;16.40;99.90
8979;DHT22;4524;51.364;5.448;2023-05-07T06:17:56;16.40;99.90
8979;DHT22;4524;51.364;5.448;2023-05-07T06:20:24;16.40;99.90
8979;DHT22;4524;51.364;5.448;2023-05-07T06:22:52;16.40;99.90
8979;DHT22;4524;51.364;5.448;2023-05-07T06:25:20;16.50;99.90
8979;DHT22;4524;51.364;5.448;2023-05-07T06:27:48;16.50;99.90
8979;DHT22;4524;51.364;5.448;2023-05-07T06:30:16;16.60;99.90
8979;DHT22;4524;51.364;5.448;2023-05-07T06:32:46;16.70;99.90
8979;DHT22;4524;51.364;5.448;2023-05-07T06:35:14;16.70;99.90
8979;DHT22;4524;51.364;5.448;2023-05-07T06:37:42;16.80;99.90
8979;DHT22;4524;51.364;5.448;2023-05-07T06:40:16;16.90;99.90
8979;DHT22;4524;51.364;5.448;2023-05-07T06:42:45;16.90;99.90
8979;DHT22;4524;51.364;5.448;2023-05-07T06:45:23;16.90;99.90
8979;DHT22;4524;51.364;5.448;2023-05-07T06:47:54;16.90;99.90
8979;DHT22;4524;51.364;5.448;2023-05-07T06:50:23;16.90;99.90
8979;DHT22;4524;51.364;5.448;2023-05-07T06:52:55;16.90;99.90
8979;DHT22;4524;51.364;5.448;2023-05-07T06:55:23;16.90;99.90
8979;DHT22;4524;51.364;5.448;2023-05-07T06:57:52;16.90;99.90
8979;DHT22;4524;51.364;5.448;2023-05-07T07:00:21;17.00;99.90
8979;DHT22;4524;51.364;5.448;2023-05-07T07:02:54;17.00;99.90
8979;DHT22;4524;51.364;5.448;2023-05-07T07:05:26;17.00;99.90
8979;DHT22;4524;51.364;5.448;2023-05-07T07:07:54;17.10;99.90
8979;DHT22;4524;51.364;5.448;2023-05-07T07:10:22;17.20;99.90
8979;DHT22;4524;51.364;5.448;2023-05-07T07:12:52;17.20;99.90
8979;DHT22;4524;51.364;5.448;2023-05-07T07:15:21;17.20;99.90
8979;DHT22;4524;51.364;5.448;2023-05-07T07:17:51;17.20;99.90
8979;DHT22;4524;51.364;5.448;2023-05-07T07:20:21;17.30;99.90
8979;DHT22;4524;51.364;5.448;2023-05-07T07:22:49;17.40;86.80
8979;DHT22;4524;51.364;5.448;2023-05-07T07:25:17;17.40;57.30
8979;DHT22;4524;51.364;5.448;2023-05-07T07:27:45;17.40;86.80
8979;DHT22;4524;51.364;5.448;2023-05-07T07:30:14;17.40;99.90
8979;DHT22;4524;51.364;5.448;2023-05-07T07:32:45;17.50;99.90
8979;DHT22;4524;51.364;5.448;2023-05-07T07:35:14;17.60;99.90
8979;DHT22;4524;51.364;5.448;2023-05-07T07:37:45;17.70;99.90
8979;DHT22;4524;51.364;5.448;2023-05-07T07:40:14;17.80;99.90
8979;DHT22;4524;51.364;5.448;2023-05-07T07:42:43;17.80;1.00
8979;DHT22;4524;51.364;5.448;2023-05-07T07:45:12;17.80;1.00
8979;DHT22;4524;51.364;5.448;2023-05-07T07:47:44;17.80;9.00
8979;DHT22;4524;51.364;5.448;2023-05-07T07:50:12;17.90;16.00
8979;DHT22;4524;51.364;5.448;2023-05-07T07:52:52;18.00;1.00
8979;DHT22;4524;51.364;5.448;2023-05-07T07:55:22;18.00;1.00
8979;DHT22;4524;51.364;5.448;2023-05-07T07:57:53;18.10;16.30
8979;DHT22;4524;51.364;5.448;2023-05-07T08:00:22;18.10;37.50
8979;DHT22;4524;51.364;5.448;2023-05-07T08:02:54;18.20;1.00
8979;DHT22;4524;51.364;5.448;2023-05-07T08:05:27;18.20;1.00
8979;DHT22;4524;51.364;5.448;2023-05-07T08:07:57;18.20;21.50
8979;DHT22;4524;51.364;5.448;2023-05-07T08:10:30;18.30;1.00
8979;DHT22;4524;51.364;5.448;2023-05-07T08:13:06;18.30;1.00
8979;DHT22;4524;51.364;5.448;2023-05-07T08:15:37;18.40;29.70
8979;DHT22;4524;51.364;5.448;2023-05-07T08:18:05;18.40;45.80
8979;DHT22;4524;51.364;5.448;2023-05-07T08:20:34;18.50;1.00
8979;DHT22;4524;51.364;5.448;2023-05-07T08:23:09;18.60;1.00
8979;DHT22;4524;51.364;5.448;2023-05-07T08:25:38;18.70;1.00
8979;DHT22;4524;51.364;5.448;2023-05-07T08:28:07;18.80;1.00
8979;DHT22;4524;51.364;5.448;2023-05-07T08:30:37;18.90;1.00
8979;DHT22;4524;51.364;5.448;2023-05-07T08:33:05;19.00;1.00
8979;DHT22;4524;51.364;5.448;2023-05-07T08:35:33;19.10;1.00
8979;DHT22;4524;51.364;5.448;2023-05-07T08:38:02;19.00;99.90
8979;DHT22;4524;51.364;5.448;2023-05-07T08:40:35;19.10;1.00
8979;DHT22;4524;51.364;5.448;2023-05-07T08:43:07;19.10;1.00
8979;DHT22;4524;51.364;5.448;2023-05-07T08:45:39;19.30;1.00
8979;DHT22;4524;51.364;5.448;2023-05-07T08:48:15;19.40;1.00
8979;DHT22;4524;51.364;5.448;2023-05-07T08:50:49;19.50;99.90
8979;DHT22;4524;51.364;5.448;2023-05-07T08:53:17;19.60;99.90
8979;DHT22;4524;51.364;5.448;2023-05-07T08:55:50;19.70;99.90
8979;DHT22;4524;51.364;5.448;2023-05-07T08:58:19;19.70;99.90
8979;DHT22;4524;51.364;5.448;2023-05-07T09:00:48;19.70;99.90
8979;DHT22;4524;51.364;5.448;2023-05-07T09:03:17;19.80;99.90
8979;DHT22;4524;51.364;5.448;2023-05-07T09:05:48;19.80;99.90
8979;DHT22;4524;51.364;5.448;2023-05-07T09:08:18;19.90;99.90
8979;DHT22;4524;51.364;5.448;2023-05-07T09:10:49;19.80;99.90
8979;DHT22;4524;51.364;5.448;2023-05-07T09:13:17;19.90;99.90
8979;DHT22;4524;51.364;5.448;2023-05-07T09:15:46;19.80;99.90
8979;DHT22;4524;51.364;5.448;2023-05-07T09:18:15;19.80;99.90
8979;DHT22;4524;51.364;5.448;2023-05-07T09:20:45;19.90;99.90
8979;DHT22;4524;51.364;5.448;2023-05-07T09:23:14;20.10;99.90
8979;DHT22;4524;51.364;5.448;2023-05-07T09:25:43;20.20;99.90
8979;DHT22;4524;51.364;5.448;2023-05-07T09:28:19;20.40;99.90
8979;DHT22;4524;51.364;5.448;2023-05-07T09:30:47;20.50;99.90
8979;DHT22;4524;51.364;5.448;2023-05-07T09:33:15;20.60;99.90
8979;DHT22;4524;51.364;5.448;2023-05-07T09:35:51;20.70;99.90
8979;DHT22;4524;51.364;5.448;2023-05-07T09:38:21;20.90;99.90
8979;DHT22;4524;51.364;5.448;2023-05-07T09:41:02;20.90;99.90
8979;DHT22;4524;51.364;5.448;2023-05-07T09:43:34;21.10;99.90
8979;DHT22;4524;51.364;5.448;2023-05-07T09:46:13;21.30;99.90
8979;DHT22;4524;51.364;5.448;2023-05-07T09:48:48;21.40;99.90
8979;DHT22;4524;51.364;5.448;2023-05-07T09:51:22;21.50;99.90
8979;DHT22;4524;51.364;5.448;2023-05-07T09:53:54;21.70;99.90
8979;DHT22;4524;51.364;5.448;2023-05-07T09:56:24;21.90;99.90
8979;DHT22;4524;51.364;5.448;2023-05-07T09:58:56;22.10;99.90
8979;DHT22;4524;51.364;5.448;2023-05-07T10:01:25;22.40;99.90
8979;DHT22;4524;51.364;5.448;2023-05-07T10:03:54;22.40;99.90
8979;DHT22;4524;51.364;5.448;2023-05-07T10:06:24;22.30;99.90
8979;DHT22;4524;51.364;5.448;2023-05-07T10:08:53;22.40;99.90
8979;DHT22;4524;51.364;5.448;2023-05-07T10:11:23;22.50;99.90
8979;DHT22;4524;51.364;5.448;2023-05-07T10:13:52;22.40;99.90
8979;DHT22;4524;51.364;5.448;2023-05-07T10:16:22;22.40;99.90
8979;DHT22;4524;51.364;5.448;2023-05-07T10:18:51;22.50;99.90
8979;DHT22;4524;51.364;5.448;2023-05-07T10:21:23;22.60;99.90
8979;DHT22;4524;51.364;5.448;2023-05-07T10:23:58;22.40;99.90
8979;DHT22;4524;51.364;5.448;2023-05-07T10:26:30;22.30;99.90
8979;DHT22;4524;51.364;5.448;2023-05-07T10:29:04;22.40;99.90
8979;DHT22;4524;51.364;5.448;2023-05-07T10:31:53;22.40;99.90
8979;DHT22;4524;51.364;5.448;2023-05-07T10:34:28;22.40;99.90
8979;DHT22;4524;51.364;5.448;2023-05-07T10:36:57;22.50;99.90
8979;DHT22;4524;51.364;5.448;2023-05-07T10:39:27;22.60;99.90
8979;DHT22;4524;51.364;5.448;2023-05-07T10:41:55;22.60;99.90
8979;DHT22;4524;51.364;5.448;2023-05-07T10:44:26;22.80;99.90
8979;DHT22;4524;51.364;5.448;2023-05-07T10:47:10;23.00;99.90
8979;DHT22;4524;51.364;5.448;2023-05-07T10:50:22;23.00;99.90
8979;DHT22;4524;51.364;5.448;2023-05-07T10:53:21;23.20;99.90
8979;DHT22;4524;51.364;5.448;2023-05-07T10:56:25;23.30;99.90
8979;DHT22;4524;51.364;5.448;2023-05-07T10:59:37;22.90;99.90
8979;DHT22;4524;51.364;5.448;2023-05-07T11:02:17;22.60;99.90
8979;DHT22;4524;51.364;5.448;2023-05-07T11:05:20;22.50;99.90
8979;DHT22;4524;51.364;5.448;2023-05-07T11:08:07;22.70;99.90
8979;DHT22;4524;51.364;5.448;2023-05-07T11:10:51;22.90;99.90
8979;DHT22;4524;51.364;5.448;2023-05-07T11:13:42;23.00;99.90
8979;DHT22;4524;51.364;5.448;2023-05-07T11:16:19;23.30;99.90
8979;DHT22;4524;51.364;5.448;2023-05-07T11:18:53;23.40;99.90
8979;DHT22;4524;51.364;5.448;2023-05-07T11:21:36;23.40;99.90
8979;DHT22;4524;51.364;5.448;2023-05-07T11:24:39;23.20;99.90
8979;DHT22;4524;51.364;5.448;2023-05-07T11:27:07;22.80;99.90
8979;DHT22;4524;51.364;5.448;2023-05-07T11:29:36;22.70;99.90
8979;DHT22;4524;51.364;5.448;2023-05-07T11:32:08;22.50;99.90
8979;DHT22;4524;51.364;5.448;2023-05-07T11:34:45;22.50;99.90
8979;DHT22;4524;51.364;5.448;2023-05-07T11:37:16;22.40;99.90
8979;DHT22;4524;51.364;5.448;2023-05-07T11:40:03;22.40;99.90
8979;DHT22;4524;51.364;5.448;2023-05-07T11:42:33;22.20;99.90
8979;DHT22;4524;51.364;5.448;2023-05-07T11:45:01;22.10;99.90
8979;DHT22;4524;51.364;5.448;2023-05-07T11:47:30;22.00;99.90
8979;DHT22;4524;51.364;5.448;2023-05-07T11:50:04;21.90;99.90
8979;DHT22;4524;51.364;5.448;2023-05-07T11:52:33;21.70;99.90
8979;DHT22;4524;51.364;5.448;2023-05-07T11:55:02;21.70;99.90
8979;DHT22;4524;51.364;5.448;2023-05-07T11:57:33;21.60;99.90
8979;DHT22;4524;51.364;5.448;2023-05-07T12:00:02;21.50;99.90
8979;DHT22;4524;51.364;5.448;2023-05-07T12:02:40;21.40;99.90
8979;DHT22;4524;51.364;5.448;2023-05-07T12:05:10;21.20;99.90
8979;DHT22;4524;51.364;5.448;2023-05-07T12:07:38;20.90;99.90
8979;DHT22;4524;51.364;5.448;2023-05-07T12:10:07;20.50;99.90
8979;DHT22;4524;51.364;5.448;2023-05-07T12:12:38;20.40;99.90
8979;DHT22;4524;51.364;5.448;2023-05-07T12:15:08;20.10;99.90
8979;DHT22;4524;51.364;5.448;2023-05-07T12:17:37;20.00;99.90
8979;DHT22;4524;51.364;5.448;2023-05-07T12:20:07;19.90;99.90
8979;DHT22;4524;51.364;5.448;2023-05-07T12:22:36;19.90;99.90
8979;DHT22;4524;51.364;5.448;2023-05-07T12:25:05;19.80;99.90
8979;DHT22;4524;51.364;5.448;2023-05-07T12:27:36;19.80;99.90
8979;DHT22;4524;51.364;5.448;2023-05-07T12:30:08;19.60;99.90
8979;DHT22;4524;51.364;5.448;2023-05-07T12:32:37;19.60;99.90
8979;DHT22;4524;51.364;5.448;2023-05-07T12:35:06;19.50;99.90
8979;DHT22;4524;51.364;5.448;2023-05-07T12:37:37;19.60;99.90
8979;DHT22;4524;51.364;5.448;2023-05-07T12:40:05;19.40;1.00
8979;DHT22;4524;51.364;5.448;2023-05-07T12:42:36;19.40;1.00
8979;DHT22;4524;51.364;5.448;2023-05-07T12:45:11;19.40;1.00
8979;DHT22;4524;51.364;5.448;2023-05-07T12:47:43;19.30;1.00
8979;DHT22;4524;51.364;5.448;2023-05-07T12:50:12;19.10;1.00
8979;DHT22;4524;51.364;5.448;2023-05-07T12:52:42;19.10;1.00
8979;DHT22;4524;51.364;5.448;2023-05-07T12:55:14;19.10;1.00
8979;DHT22;4524;51.364;5.448;2023-05-07T12:57:43;19.20;99.90
8979;DHT22;4524;51.364;5.448;2023-05-07T13:00:12;19.20;1.00
8979;DHT22;4524;51.364;5.448;2023-05-07T13:02:42;19.40;1.00
8979;DHT22;4524;51.364;5.448;2023-05-07T13:05:11;19.50;99.90
8979;DHT22;4524;51.364;5.448;2023-05-07T13:07:41;19.60;99.90
8979;DHT22;4524;51.364;5.448;2023-05-07T13:10:19;19.70;1.00
8979;DHT22;4524;51.364;5.448;2023-05-07T13:12:47;19.60;99.90
8979;DHT22;4524;51.364;5.448;2023-05-07T13:15:16;19.70;99.90
8979;DHT22;4524;51.364;5.448;2023-05-07T13:17:44;19.90;99.90
8979;DHT22;4524;51.364;5.448;2023-05-07T13:20:12;20.00;99.90
8979;DHT22;4524;51.364;5.448;2023-05-07T13:22:42;19.80;99.90
8979;DHT22;4524;51.364;5.448;2023-05-07T13:25:10;19.70;99.90
8979;DHT22;4524;51.364;5.448;2023-05-07T13:27:38;19.80;99.90
8979;DHT22;4524;51.364;5.448;2023-05-07T13:30:07;19.90;99.90
8979;DHT22;4524;51.364;5.448;2023-05-07T13:32:35;19.90;99.90
8979;DHT22;4524;51.364;5.448;2023-05-07T13:35:03;19.90;99.90
8979;DHT22;4524;51.364;5.448;2023-05-07T13:37:31;19.80;99.90
8979;DHT22;4524;51.364;5.448;2023-05-07T13:40:01;19.70;99.90
8979;DHT22;4524;51.364;5.448;2023-05-07T13:42:29;19.60;1.00
8979;DHT22;4524;51.364;5.448;2023-05-07T13:44:57;19.60;99.90
8979;DHT22;4524;51.364;5.448;2023-05-07T13:47:25;19.70;99.90
8979;DHT22;4524;51.364;5.448;2023-05-07T13:49:53;19.70;99.90
8979;DHT22;4524;51.364;5.448;2023-05-07T13:52:21;19.90;1.00
8979;DHT22;4524;51.364;5.448;2023-05-07T13:54:49;19.90;99.90
8979;DHT22;4524;51.364;5.448;2023-05-07T13:57:20;19.90;99.90
8979;DHT22;4524;51.364;5.448;2023-05-07T13:59:48;19.80;1.00
8979;DHT22;4524;51.364;5.448;2023-05-07T14:02:15;19.90;99.90
8979;DHT22;4524;51.364;5.448;2023-05-07T14:04:44;19.90;1.00
8979;DHT22;4524;51.364;5.448;2023-05-07T14:07:12;19.90;1.00
8979;DHT22;4524;51.364;5.448;2023-05-07T14:09:40;19.60;99.90
8979;DHT22;4524;51.364;5.448;2023-05-07T14:12:07;19.50;99.90
8979;DHT22;4524;51.364;5.448;2023-05-07T14:14:37;19.40;99.90
8979;DHT22;4524;51.364;5.448;2023-05-07T14:17:05;19.30;99.90
8979;DHT22;4524;51.364;5.448;2023-05-07T14:19:33;19.30;99.90
8979;DHT22;4524;51.364;5.448;2023-05-07T14:22:01;19.30;99.90
8979;DHT22;4524;51.364;5.448;2023-05-07T14:24:29;19.30;99.90
8979;DHT22;4524;51.364;5.448;2023-05-07T14:27:04;19.30;99.90
8979;DHT22;4524;51.364;5.448;2023-05-07T14:29:32;19.40;99.90
8979;DHT22;4524;51.364;5.448;2023-05-07T14:32:03;19.30;99.90
8979;DHT22;4524;51.364;5.448;2023-05-07T14:34:32;19.40;1.00
8979;DHT22;4524;51.364;5.448;2023-05-07T14:37:00;19.50;1.00
8979;DHT22;4524;51.364;5.448;2023-05-07T14:39:28;19.60;1.00
8979;DHT22;4524;51.364;5.448;2023-05-07T14:41:57;19.30;1.00
8979;DHT22;4524;51.364;5.448;2023-05-07T14:44:25;19.10;1.00
8979;DHT22;4524;51.364;5.448;2023-05-07T14:46:53;19.30;1.00
8979;DHT22;4524;51.364;5.448;2023-05-07T14:49:22;19.40;1.00
8979;DHT22;4524;51.364;5.448;2023-05-07T14:51:50;19.60;1.00
8979;DHT22;4524;51.364;5.448;2023-05-07T14:54:18;19.60;99.90
8979;DHT22;4524;51.364;5.448;2023-05-07T14:56:46;19.60;99.90
8979;DHT22;4524;51.364;5.448;2023-05-07T14:59:14;19.70;99.90
8979;DHT22;4524;51.364;5.448;2023-05-07T15:01:44;19.80;99.90
8979;DHT22;4524;51.364;5.448;2023-05-07T15:04:12;19.80;99.90
8979;DHT22;4524;51.364;5.448;2023-05-07T15:06:43;19.80;1.00
8979;DHT22;4524;51.364;5.448;2023-05-07T15:09:11;19.80;1.00
8979;DHT22;4524;51.364;5.448;2023-05-07T15:11:39;19.70;1.00
8979;DHT22;4524;51.364;5.448;2023-05-07T15:14:07;19.70;1.00
8979;DHT22;4524;51.364;5.448;2023-05-07T15:16:34;19.70;1.00
8979;DHT22;4524;51.364;5.448;2023-05-07T15:19:02;19.80;1.00
8979;DHT22;4524;51.364;5.448;2023-05-07T15:21:30;19.60;1.00
8979;DHT22;4524;51.364;5.448;2023-05-07T15:24:02;19.60;1.00
8979;DHT22;4524;51.364;5.448;2023-05-07T15:26:30;19.50;1.00
8979;DHT22;4524;51.364;5.448;2023-05-07T15:28:58;19.50;1.00
8979;DHT22;4524;51.364;5.448;2023-05-07T15:31:26;19.50;12.80
8979;DHT22;4524;51.364;5.448;2023-05-07T15:33:54;19.40;1.00
8979;DHT22;4524;51.364;5.448;2023-05-07T15:36:23;19.60;1.50
8979;DHT22;4524;51.364;5.448;2023-05-07T15:38:51;19.60;1.00
8979;DHT22;4524;51.364;5.448;2023-05-07T15:41:21;19.50;1.00
8979;DHT22;4524;51.364;5.448;2023-05-07T15:43:51;19.50;1.00
8979;DHT22;4524;51.364;5.448;2023-05-07T15:46:21;19.50;1.00
8979;DHT22;4524;51.364;5.448;2023-05-07T15:48:50;19.40;1.00
8979;DHT22;4524;51.364;5.448;2023-05-07T15:51:18;19.20;1.00
8979;DHT22;4524;51.364;5.448;2023-05-07T15:53:46;19.30;14.60
8979;DHT22;4524;51.364;5.448;2023-05-07T15:56:15;19.20;1.00
8979;DHT22;4524;51.364;5.448;2023-05-07T15:58:44;19.30;1.00
8979;DHT22;4524;51.364;5.448;2023-05-07T16:01:12;19.30;1.00
8979;DHT22;4524;51.364;5.448;2023-05-07T16:03:40;19.40;1.00
8979;DHT22;4524;51.364;5.448;2023-05-07T16:06:09;19.30;1.00
8979;DHT22;4524;51.364;5.448;2023-05-07T16:08:38;19.30;1.00
8979;DHT22;4524;51.364;5.448;2023-05-07T16:11:07;19.30;1.00
8979;DHT22;4524;51.364;5.448;2023-05-07T16:13:35;19.40;1.00
8979;DHT22;4524;51.364;5.448;2023-05-07T16:16:05;19.30;1.00
8979;DHT22;4524;51.364;5.448;2023-05-07T16:18:33;19.40;1.00
8979;DHT22;4524;51.364;5.448;2023-05-07T16:21:02;19.40;1.00
8979;DHT22;4524;51.364;5.448;2023-05-07T16:23:30;19.50;1.00
8979;DHT22;4524;51.364;5.448;2023-05-07T16:25:58;19.50;1.00